This is the latest recevied weather packets stored in our database for station/object OE2SWM. If no packets are shown the sender has not sent any weather packets the latest 10 day(s).
| Time | Temp. | Humidity | Pressure | Rain* | Wind** | Luminosity | Snow |
|---|---|---|---|---|---|---|---|
| 1777626600 | 10.56° C | 44% | 978 hPa | 0 mm | - | - | - |
| 1777626000 | 10° C | 43% | 978 hPa | 0 mm | - | - | - |
| 1777625400 | 10° C | 44% | 978 hPa | 0 mm | - | - | - |
| 1777624800 | 10° C | 44% | 979 hPa | 0 mm | - | - | - |
| 1777624200 | 8.89° C | 44% | 979 hPa | 0 mm | - | - | - |
| 1777623600 | 8.89° C | 43% | 978 hPa | 0 mm | - | - | - |
| 1777623000 | 8.89° C | 45% | 978 hPa | 0 mm | - | - | - |
| 1777622400 | 7.78° C | 45% | 979 hPa | 0 mm | - | - | - |
| 1777621800 | 7.78° C | 47% | 979 hPa | 0 mm | - | - | - |
| 1777621200 | 7.78° C | 47% | 979 hPa | 0 mm | - | - | - |
| 1777620600 | 6.67° C | 47% | 979 hPa | 0 mm | - | - | - |
| 1777620000 | 6.67° C | 47% | 979 hPa | 0 mm | - | - | - |
| 1777619400 | 6.67° C | 52% | 979 hPa | 0 mm | - | - | - |
| 1777618800 | 6.67° C | 52% | 979 hPa | 0 mm | - | - | - |
| 1777618200 | 5.56° C | 54% | 979 hPa | 0 mm | - | - | - |
| 1777617600 | 5.56° C | 53% | 979 hPa | 0 mm | - | - | - |
| 1777617000 | 5.56° C | 54% | 979 hPa | 0 mm | - | - | - |
| 1777616400 | 5.56° C | 54% | 979 hPa | 0 mm | - | - | - |
| 1777615800 | 5.56° C | 54% | 979 hPa | 0 mm | - | - | - |
| 1777615200 | 5.56° C | 57% | 979 hPa | 0 mm | - | - | - |
| 1777614600 | 5.56° C | 58% | 979 hPa | 0 mm | - | - | - |
| 1777614000 | 6.67° C | 55% | 979 hPa | 0 mm | - | - | - |
| 1777613400 | 8.89° C | 47% | 979 hPa | 0 mm | - | - | - |
| 1777612800 | 13.89° C | 39% | 979 hPa | 0 mm | - | - | - |
| 1777612200 | 17.78° C | 35% | 979 hPa | 0 mm | - | - | - |
* Rain latest hour (hover to see other rain measurements)
** Current wind speed in m/s (hover to see current wind gust speed)